Time;durP1;ratioP1;P1;durP2;ratioP2;P2;SDS_P1;SDS_P2;PMS_P1;PMS_P2;Temp;Humidity;BMP_temperature;BMP_pressure;BME280_temperature;BME280_humidity;BME280_pressure;Samples;Min_cycle;Max_cycle;Signal;HPM_P1;HPM_P2
2023/12/09 00:01:26;;;;;;;12.30;4.78;;;;;;;;;;4912601;29;20273;-84
2023/12/09 00:03:51;;;;;;;12.98;4.38;;;;;;;;;;4909341;29;20032;-84
2023/12/09 00:06:17;;;;;;;8.30;4.00;;;;;;;;;;4911345;29;20388;-84
2023/12/09 00:08:43;;;;;;;12.73;4.45;;;;;;;;;;4913179;29;20282;-84
2023/12/09 00:11:08;;;;;;;13.65;4.95;;;;;;;;;;4914692;29;20103;-84
2023/12/09 00:13:33;;;;;;;19.53;4.90;;;;;;;;;;4898870;29;20107;-84
2023/12/09 00:15:59;;;;;;;14.43;4.78;;;;;;;;;;4913982;29;20373;-84
2023/12/09 00:18:24;;;;;;;11.57;3.92;;;;;;;;;;4921435;29;20044;-84
2023/12/09 00:20:49;;;;;;;14.02;4.57;;;;;;;;;;4911313;29;20039;-84
2023/12/09 00:23:15;;;;;;;9.95;4.22;;;;;;;;;;4907589;29;20071;-84
2023/12/09 00:25:40;;;;;;;10.77;3.83;;;;;;;;;;4909737;29;20063;-84
2023/12/09 00:28:06;;;;;;;13.32;3.92;;;;;;;;;;4923640;29;20048;-84
2023/12/09 00:30:31;;;;;;;10.60;3.70;;;;;;;;;;4897557;29;20038;-85
2023/12/09 00:32:56;;;;;;;19.40;3.90;;;;;;;;;;4910178;29;20334;-84
2023/12/09 00:35:21;;;;;;;10.30;3.40;;;;;;;;;;4916381;29;20345;-84
2023/12/09 00:37:46;;;;;;;10.75;3.45;;;;;;;;;;4904551;29;20268;-84
2023/12/09 00:40:12;;;;;;;16.33;3.83;;;;;;;;;;4906289;29;20470;-84
2023/12/09 00:42:37;;;;;;;15.43;4.00;;;;;;;;;;4906035;29;20277;-84
2023/12/09 00:45:03;;;;;;;13.30;3.38;;;;;;;;;;4923516;29;20024;-84
2023/12/09 00:47:28;;;;;;;13.88;3.20;;;;;;;;;;4916118;29;20024;-84
2023/12/09 00:49:53;;;;;;;9.83;3.47;;;;;;;;;;4913352;29;20062;-84
2023/12/09 00:52:19;;;;;;;13.53;3.77;;;;;;;;;;4931784;29;20303;-84
2023/12/09 00:54:44;;;;;;;14.40;3.30;;;;;;;;;;4917453;29;20330;-84
2023/12/09 00:57:09;;;;;;;14.27;3.50;;;;;;;;;;4909354;29;20278;-84
2023/12/09 00:59:34;;;;;;;15.13;3.67;;;;;;;;;;4915972;29;20376;-84
2023/12/09 01:02:00;;;;;;;17.85;3.03;;;;;;;;;;4912189;29;20330;-84
2023/12/09 01:04:25;;;;;;;14.82;4.25;;;;;;;;;;4902709;29;20020;-84
2023/12/09 01:06:50;;;;;;;10.38;3.00;;;;;;;;;;4916008;29;20099;-84
2023/12/09 01:09:15;;;;;;;11.50;3.43;;;;;;;;;;4912627;29;20660;-85
2023/12/09 01:11:41;;;;;;;8.27;3.13;;;;;;;;;;4909891;29;20692;-84
2023/12/09 01:14:06;;;;;;;9.88;2.92;;;;;;;;;;4922570;29;20020;-84
2023/12/09 01:16:31;;;;;;;18.20;3.55;;;;;;;;;;4908052;29;20027;-84
2023/12/09 01:18:56;;;;;;;15.27;3.30;;;;;;;;;;4930222;29;20016;-84
2023/12/09 01:21:22;;;;;;;15.50;3.55;;;;;;;;;;4922598;29;20488;-84
2023/12/09 01:23:47;;;;;;;11.80;2.93;;;;;;;;;;4912207;29;20114;-84
2023/12/09 01:26:12;;;;;;;9.48;3.35;;;;;;;;;;4897954;29;20278;-84
2023/12/09 01:28:37;;;;;;;11.45;2.85;;;;;;;;;;4905289;29;20185;-84
2023/12/09 01:31:03;;;;;;;12.77;3.30;;;;;;;;;;4924984;29;20480;-84
2023/12/09 01:33:28;;;;;;;15.63;3.60;;;;;;;;;;4900777;29;20271;-85
2023/12/09 01:35:53;;;;;;;10.73;3.77;;;;;;;;;;4905380;29;20035;-84
2023/12/09 01:38:18;;;;;;;14.03;2.90;;;;;;;;;;4910356;29;20266;-84
2023/12/09 01:40:51;;;;;;;16.43;4.13;;;;;;;;;;4906274;29;20631;-84
2023/12/09 01:43:16;;;;;;;;;;;;;;;;;;4905697;29;20303;-84
2023/12/09 01:45:41;;;;;;;14.83;3.57;;;;;;;;;;4900010;29;20348;-84
2023/12/09 01:48:08;;;;;;;11.85;3.03;;;;;;;;;;4908988;29;20055;-85
2023/12/09 01:50:33;;;;;;;12.52;2.83;;;;;;;;;;4915297;29;20025;-84
2023/12/09 01:52:58;;;;;;;12.63;3.33;;;;;;;;;;4900774;29;20495;-84
2023/12/09 01:55:23;;;;;;;11.43;2.95;;;;;;;;;;4916818;29;20775;-84
2023/12/09 01:57:51;;;;;;;5.30;2.38;;;;;;;;;;4916412;29;20098;-84
2023/12/09 02:00:16;;;;;;;10.23;3.10;;;;;;;;;;4914336;29;20072;-84
2023/12/09 02:02:41;;;;;;;14.90;3.67;;;;;;;;;;4908430;29;20032;-84
2023/12/09 02:05:07;;;;;;;9.83;2.90;;;;;;;;;;4907774;29;20036;-84
2023/12/09 02:07:33;;;;;;;13.70;3.03;;;;;;;;;;4923435;29;20787;-84
2023/12/09 02:09:59;;;;;;;8.93;2.85;;;;;;;;;;4932411;29;20035;-84
2023/12/09 02:12:35;;;;;;;7.57;2.88;;;;;;;;;;4919594;29;20024;-84
2023/12/09 02:15:06;;;;;;;11.68;3.45;;;;;;;;;;4911241;29;20037;-84
2023/12/09 02:17:33;;;;;;;9.27;3.13;;;;;;;;;;4933300;29;20020;-84
2023/12/09 02:20:00;;;;;;;9.57;2.95;;;;;;;;;;4930831;29;20074;-84
2023/12/09 02:22:25;;;;;;;16.33;4.00;;;;;;;;;;4918790;29;20027;-85
2023/12/09 02:24:51;;;;;;;8.17;3.40;;;;;;;;;;4933918;29;20028;-84
2023/12/09 02:27:19;;;;;;;8.60;2.83;;;;;;;;;;4916210;29;20276;-84
2023/12/09 02:29:57;;;;;;;16.95;3.70;;;;;;;;;;4933608;29;20485;-84
2023/12/09 02:32:24;;;;;;;9.75;3.03;;;;;;;;;;4925789;29;20119;-84
2023/12/09 02:34:50;;;;;;;11.23;3.03;;;;;;;;;;4922638;29;20597;-84
2023/12/09 02:37:16;;;;;;;13.25;2.90;;;;;;;;;;4927424;29;20020;-84
2023/12/09 02:39:42;;;;;;;19.83;3.67;;;;;;;;;;4917326;29;20104;-83
2023/12/09 02:42:08;;;;;;;10.23;3.20;;;;;;;;;;4930726;29;20052;-85
2023/12/09 02:44:33;;;;;;;18.10;3.30;;;;;;;;;;4914393;29;20016;-84
2023/12/09 02:46:58;;;;;;;9.90;3.35;;;;;;;;;;4919351;29;20097;-85
2023/12/09 02:49:24;;;;;;;20.97;3.70;;;;;;;;;;4933377;29;20043;-84
2023/12/09 02:51:49;;;;;;;8.95;2.95;;;;;;;;;;4933001;29;20311;-84
2023/12/09 02:54:14;;;;;;;6.38;2.47;;;;;;;;;;4909280;29;20041;-84
2023/12/09 02:56:40;;;;;;;12.55;2.78;;;;;;;;;;4918946;29;20373;-84
2023/12/09 02:59:05;;;;;;;14.53;2.90;;;;;;;;;;4911319;29;20378;-84
2023/12/09 03:01:30;;;;;;;15.07;2.75;;;;;;;;;;4917112;29;20732;-84
2023/12/09 03:03:55;;;;;;;12.13;3.23;;;;;;;;;;4918663;29;20489;-84
2023/12/09 03:06:21;;;;;;;8.53;2.70;;;;;;;;;;4918845;29;20609;-84
2023/12/09 03:08:46;;;;;;;10.03;2.63;;;;;;;;;;4931876;29;20741;-84
2023/12/09 03:11:11;;;;;;;8.87;2.60;;;;;;;;;;4927615;29;20481;-84
2023/12/09 03:13:36;;;;;;;10.53;2.60;;;;;;;;;;4914284;29;20801;-84
2023/12/09 03:16:01;;;;;;;8.40;2.60;;;;;;;;;;4928904;29;20771;-84
2023/12/09 03:18:27;;;;;;;10.27;2.90;;;;;;;;;;4933089;29;20263;-84
2023/12/09 03:20:52;;;;;;;12.60;2.63;;;;;;;;;;4910355;29;20260;-84
2023/12/09 03:23:17;;;;;;;14.50;3.57;;;;;;;;;;4914877;29;20263;-84
2023/12/09 03:25:42;;;;;;;8.40;2.87;;;;;;;;;;4906123;29;20270;-84
2023/12/09 03:28:07;;;;;;;13.70;2.80;;;;;;;;;;4907271;29;20363;-84
2023/12/09 03:30:33;;;;;;;12.13;2.63;;;;;;;;;;4918088;29;20361;-84
2023/12/09 03:32:58;;;;;;;3.40;1.93;;;;;;;;;;4932601;29;20324;-84
2023/12/09 03:35:23;;;;;;;9.37;2.93;;;;;;;;;;4906927;29;20381;-84
2023/12/09 03:37:48;;;;;;;5.83;2.10;;;;;;;;;;4917992;29;20271;-84
2023/12/09 03:40:14;;;;;;;11.53;2.57;;;;;;;;;;4917751;29;20264;-84
2023/12/09 03:42:39;;;;;;;6.32;2.40;;;;;;;;;;4899851;29;20282;-84
2023/12/09 03:45:04;;;;;;;8.93;2.43;;;;;;;;;;4911375;29;20020;-84
2023/12/09 03:47:29;;;;;;;9.85;2.80;;;;;;;;;;4925483;29;20271;-84
2023/12/09 03:49:55;;;;;;;15.87;3.20;;;;;;;;;;4915181;29;20028;-84
2023/12/09 03:52:20;;;;;;;9.07;2.67;;;;;;;;;;4926822;29;20275;-84
2023/12/09 03:54:45;;;;;;;11.83;2.27;;;;;;;;;;4929004;29;20479;-84
2023/12/09 03:57:13;;;;;;;10.33;2.70;;;;;;;;;;4914520;29;20274;-84
2023/12/09 03:59:39;;;;;;;9.43;2.83;;;;;;;;;;4912932;29;20267;-84
2023/12/09 04:02:04;;;;;;;4.55;2.20;;;;;;;;;;4931641;29;20101;-84
2023/12/09 04:04:29;;;;;;;11.20;3.13;;;;;;;;;;4928095;29;20393;-84
2023/12/09 04:06:54;;;;;;;11.07;3.37;;;;;;;;;;4913600;29;20608;-84
2023/12/09 04:09:22;;;;;;;9.80;3.38;;;;;;;;;;4931427;29;20802;-84
2023/12/09 04:11:47;;;;;;;12.95;3.78;;;;;;;;;;4909568;29;20034;-84
2023/12/09 04:14:12;;;;;;;12.40;3.15;;;;;;;;;;4931926;29;20118;-84
2023/12/09 04:16:37;;;;;;;9.32;3.65;;;;;;;;;;4908306;29;20035;-84
2023/12/09 04:19:03;;;;;;;14.43;4.47;;;;;;;;;;4909638;29;20381;-84
2023/12/09 04:21:28;;;;;;;11.45;4.30;;;;;;;;;;4915983;29;20416;-84
2023/12/09 04:23:53;;;;;;;14.50;5.10;;;;;;;;;;4927971;29;20080;-84
2023/12/09 04:26:19;;;;;;;15.83;4.93;;;;;;;;;;4911486;29;20270;-84
2023/12/09 04:28:44;;;;;;;15.88;4.35;;;;;;;;;;4923700;29;20378;-84
2023/12/09 04:31:09;;;;;;;11.10;4.35;;;;;;;;;;4916991;29;20130;-84
2023/12/09 04:33:34;;;;;;;12.67;4.63;;;;;;;;;;4931413;29;20115;-84
2023/12/09 04:36:00;;;;;;;16.07;4.87;;;;;;;;;;4930921;29;20274;-84
2023/12/09 04:38:25;;;;;;;12.55;4.75;;;;;;;;;;4915935;29;20064;-84
2023/12/09 04:40:50;;;;;;;11.70;4.43;;;;;;;;;;4932312;29;20027;-84
2023/12/09 04:43:15;;;;;;;11.37;5.17;;;;;;;;;;4914097;29;20040;-84
2023/12/09 04:45:40;;;;;;;13.13;4.87;;;;;;;;;;4910053;29;20290;-84
2023/12/09 04:48:06;;;;;;;12.10;4.70;;;;;;;;;;4908992;29;20281;-84
2023/12/09 04:50:31;;;;;;;16.17;5.15;;;;;;;;;;4922921;29;20274;-84
2023/12/09 04:52:56;;;;;;;13.00;4.33;;;;;;;;;;4916098;29;20028;-84
2023/12/09 04:55:21;;;;;;;18.97;5.87;;;;;;;;;;4930602;29;20287;-84
2023/12/09 04:57:47;;;;;;;9.70;4.00;;;;;;;;;;4899573;29;20274;-84
2023/12/09 05:00:13;;;;;;;12.07;4.57;;;;;;;;;;4908713;29;20267;-84
2023/12/09 05:02:38;;;;;;;10.07;3.88;;;;;;;;;;4922467;29;20056;-84
2023/12/09 05:05:04;;;;;;;10.07;3.97;;;;;;;;;;4908982;29;20047;-84
2023/12/09 05:07:30;;;;;;;12.27;4.90;;;;;;;;;;4910293;29;20056;-84
2023/12/09 05:09:55;;;;;;;7.93;3.58;;;;;;;;;;4927367;29;20063;-84
2023/12/09 05:12:20;;;;;;;11.77;4.07;;;;;;;;;;4909799;29;20024;-84
2023/12/09 05:14:46;;;;;;;14.80;3.93;;;;;;;;;;4923068;29;20283;-84
2023/12/09 05:17:11;;;;;;;8.82;3.40;;;;;;;;;;4908397;29;20278;-84
2023/12/09 05:19:37;;;;;;;14.43;4.47;;;;;;;;;;4930921;29;20024;-84
2023/12/09 05:22:02;;;;;;;15.98;3.42;;;;;;;;;;4907975;29;20019;-84
2023/12/09 05:24:27;;;;;;;18.27;4.25;;;;;;;;;;4904340;29;20029;-84
2023/12/09 05:26:52;;;;;;;8.70;3.60;;;;;;;;;;4910247;29;20168;-84
2023/12/09 05:29:18;;;;;;;7.87;3.27;;;;;;;;;;4914350;29;20335;-84
2023/12/09 05:31:43;;;;;;;10.93;3.85;;;;;;;;;;4907541;29;20311;-84
2023/12/09 05:34:08;;;;;;;15.20;3.57;;;;;;;;;;4901691;29;20036;-84
2023/12/09 05:36:33;;;;;;;11.55;3.33;;;;;;;;;;4908432;29;20278;-84
2023/12/09 05:38:59;;;;;;;9.70;3.30;;;;;;;;;;4911103;29;20035;-84
2023/12/09 05:41:25;;;;;;;8.20;3.13;;;;;;;;;;4913589;29;20035;-84
2023/12/09 05:43:50;;;;;;;8.93;2.97;;;;;;;;;;4902127;29;20024;-84
2023/12/09 05:46:19;;;;;;;5.80;2.90;;;;;;;;;;4919699;29;20067;-84
2023/12/09 05:48:44;;;;;;;9.80;2.90;;;;;;;;;;4926344;29;20034;-84
2023/12/09 05:51:09;;;;;;;12.13;2.80;;;;;;;;;;4918536;29;20028;-84
2023/12/09 05:53:34;;;;;;;13.83;2.77;;;;;;;;;;4918484;29;20270;-84
2023/12/09 05:56:00;;;;;;;9.55;2.67;;;;;;;;;;4919138;29;20377;-84
2023/12/09 05:58:25;;;;;;;9.13;2.83;;;;;;;;;;4919710;29;20078;-84
2023/12/09 06:00:50;;;;;;;7.00;2.43;;;;;;;;;;4919733;29;20016;-84
2023/12/09 06:03:16;;;;;;;5.93;2.20;;;;;;;;;;4925797;29;20322;-84
2023/12/09 06:05:41;;;;;;;9.57;3.17;;;;;;;;;;4919862;29;20293;-84
2023/12/09 06:08:07;;;;;;;9.85;2.80;;;;;;;;;;4919688;29;20067;-84
2023/12/09 06:10:32;;;;;;;8.00;2.60;;;;;;;;;;4925750;29;20489;-84
2023/12/09 06:12:57;;;;;;;9.33;2.77;;;;;;;;;;4933166;29;20477;-84
2023/12/09 06:15:22;;;;;;;12.93;3.37;;;;;;;;;;4919271;29;20833;-84
2023/12/09 06:17:47;;;;;;;6.53;3.07;;;;;;;;;;4917957;29;20020;-84
2023/12/09 06:20:13;;;;;;;8.73;2.97;;;;;;;;;;4919392;29;20263;-84
2023/12/09 06:22:38;;;;;;;8.82;2.78;;;;;;;;;;4925961;29;20286;-84
2023/12/09 06:25:03;;;;;;;7.23;2.83;;;;;;;;;;4917253;29;20532;-84
2023/12/09 06:27:28;;;;;;;8.50;3.28;;;;;;;;;;4918300;29;20286;-84
2023/12/09 06:29:54;;;;;;;11.10;3.10;;;;;;;;;;4911090;29;20095;-84
2023/12/09 06:32:19;;;;;;;11.93;2.88;;;;;;;;;;4917071;29;20303;-84
2023/12/09 06:34:44;;;;;;;8.30;3.00;;;;;;;;;;4919129;29;20028;-84
2023/12/09 06:37:09;;;;;;;8.50;2.53;;;;;;;;;;4932183;29;20271;-84
2023/12/09 06:39:35;;;;;;;10.02;3.38;;;;;;;;;;4932075;29;20639;-83
2023/12/09 06:42:00;;;;;;;17.27;3.70;;;;;;;;;;4917947;29;20056;-83
2023/12/09 06:44:26;;;;;;;8.82;2.78;;;;;;;;;;4898139;29;20040;-83
2023/12/09 06:46:51;;;;;;;7.38;3.15;;;;;;;;;;4912250;29;20465;-84
2023/12/09 06:49:18;;;;;;;8.18;2.92;;;;;;;;;;4901946;29;20028;-83
2023/12/09 06:51:43;;;;;;;6.25;2.95;;;;;;;;;;4932202;29;20103;-83
2023/12/09 06:54:09;;;;;;;8.70;3.38;;;;;;;;;;4932461;29;20447;-84
2023/12/09 06:56:34;;;;;;;8.55;2.72;;;;;;;;;;4915525;29;20024;-83
2023/12/09 06:59:00;;;;;;;7.17;2.67;;;;;;;;;;4932181;29;20043;-83
2023/12/09 07:01:26;;;;;;;12.82;3.78;;;;;;;;;;4917662;29;20303;-85
2023/12/09 07:03:52;;;;;;;9.52;2.78;;;;;;;;;;4931694;29;20050;-83
2023/12/09 07:06:21;;;;;;;7.55;2.25;;;;;;;;;;4917467;29;20063;-83
2023/12/09 07:08:46;;;;;;;5.22;2.58;;;;;;;;;;4909043;29;20050;-83
2023/12/09 07:11:11;;;;;;;5.37;2.50;;;;;;;;;;4913921;29;20430;-83
2023/12/09 07:13:38;;;;;;;7.93;2.38;;;;;;;;;;4931955;29;20858;-83
2023/12/09 07:16:04;;;;;;;10.07;3.25;;;;;;;;;;4916644;29;20079;-83
2023/12/09 07:18:29;;;;;;;7.85;2.40;;;;;;;;;;4931950;29;20366;-83
2023/12/09 07:20:54;;;;;;;8.63;2.07;;;;;;;;;;4924469;29;20072;-83
2023/12/09 07:23:20;;;;;;;9.20;2.27;;;;;;;;;;4915636;29;20024;-83
2023/12/09 07:25:45;;;;;;;8.90;2.25;;;;;;;;;;4915823;29;20278;-83
2023/12/09 07:28:10;;;;;;;7.55;2.55;;;;;;;;;;4923222;29;20048;-84
2023/12/09 07:30:36;;;;;;;6.15;2.55;;;;;;;;;;4902197;29;20626;-83
2023/12/09 07:33:01;;;;;;;5.25;2.20;;;;;;;;;;4930994;29;20050;-84
2023/12/09 07:35:27;;;;;;;3.50;1.60;;;;;;;;;;4915538;29;20032;-84
2023/12/09 07:37:52;;;;;;;8.77;2.15;;;;;;;;;;4931532;29;20278;-84
2023/12/09 07:40:17;;;;;;;4.30;2.03;;;;;;;;;;4909548;29;20021;-84
2023/12/09 07:42:42;;;;;;;5.77;2.20;;;;;;;;;;4916615;29;20278;-84
2023/12/09 07:45:08;;;;;;;5.40;2.28;;;;;;;;;;4916378;29;20282;-83
2023/12/09 07:47:33;;;;;;;6.88;2.40;;;;;;;;;;4931417;29;20035;-84
2023/12/09 07:49:58;;;;;;;9.63;2.60;;;;;;;;;;4909900;29;20020;-84
2023/12/09 07:52:24;;;;;;;7.93;2.43;;;;;;;;;;4910589;29;20119;-84
2023/12/09 07:54:49;;;;;;;10.40;2.60;;;;;;;;;;4924001;29;20035;-84
2023/12/09 07:57:14;;;;;;;7.37;2.10;;;;;;;;;;4911922;29;20020;-84
2023/12/09 07:59:39;;;;;;;7.78;2.25;;;;;;;;;;4912407;29;20080;-84
2023/12/09 08:02:05;;;;;;;7.75;2.55;;;;;;;;;;4912222;29;20111;-83
2023/12/09 08:04:30;;;;;;;4.68;2.13;;;;;;;;;;4899090;29;20033;-83
2023/12/09 08:06:55;;;;;;;4.33;2.13;;;;;;;;;;4919964;29;20099;-84
2023/12/09 08:09:21;;;;;;;7.23;2.50;;;;;;;;;;4926855;29;20624;-84
2023/12/09 08:11:46;;;;;;;6.47;2.47;;;;;;;;;;4911485;29;20778;-84
2023/12/09 08:14:11;;;;;;;9.40;2.55;;;;;;;;;;4924583;29;20024;-84
2023/12/09 08:16:36;;;;;;;8.52;2.30;;;;;;;;;;4926313;29;20024;-83
2023/12/09 08:19:02;;;;;;;8.17;2.30;;;;;;;;;;4908374;29;20038;-82
2023/12/09 08:21:27;;;;;;;3.87;2.27;;;;;;;;;;4907919;29;20400;-84
2023/12/09 08:23:54;;;;;;;7.50;1.87;;;;;;;;;;4930481;29;20263;-82
2023/12/09 08:26:19;;;;;;;5.40;2.05;;;;;;;;;;4913042;29;20777;-84
2023/12/09 08:28:45;;;;;;;7.47;2.50;;;;;;;;;;4917005;29;20040;-84
2023/12/09 08:31:10;;;;;;;7.68;2.40;;;;;;;;;;4914215;29;20392;-84
2023/12/09 08:33:35;;;;;;;5.88;2.20;;;;;;;;;;4902089;29;20548;-84
2023/12/09 08:36:01;;;;;;;8.50;2.70;;;;;;;;;;4902183;29;20032;-84
2023/12/09 08:38:26;;;;;;;12.25;2.50;;;;;;;;;;4928100;29;20280;-84
2023/12/09 08:40:51;;;;;;;5.63;2.07;;;;;;;;;;4906067;29;20061;-84
2023/12/09 08:43:17;;;;;;;9.77;2.40;;;;;;;;;;4903846;29;20766;-84
2023/12/09 08:45:42;;;;;;;4.00;1.65;;;;;;;;;;4913252;29;20091;-84
2023/12/09 08:48:08;;;;;;;6.03;2.10;;;;;;;;;;4916249;29;20491;-84
2023/12/09 08:50:33;;;;;;;14.15;2.35;;;;;;;;;;4915823;29;20286;-84
2023/12/09 08:52:58;;;;;;;8.73;2.13;;;;;;;;;;4914860;29;20123;-84
2023/12/09 08:55:23;;;;;;;12.25;2.45;;;;;;;;;;4907053;29;20032;-84
2023/12/09 08:57:50;;;;;;;6.53;2.10;;;;;;;;;;4914105;29;20024;-84
2023/12/09 09:00:19;;;;;;;7.18;2.00;;;;;;;;;;4931119;29;20020;-84
2023/12/09 09:02:44;;;;;;;4.88;1.83;;;;;;;;;;4931623;29;20026;-84
2023/12/09 09:05:10;;;;;;;7.60;2.22;;;;;;;;;;4931499;29;20115;-84
2023/12/09 09:07:39;;;;;;;9.55;2.17;;;;;;;;;;4931119;29;20111;-84
2023/12/09 09:10:05;;;;;;;8.23;2.10;;;;;;;;;;4916884;29;20020;-84
2023/12/09 09:12:30;;;;;;;13.77;2.83;;;;;;;;;;4915708;29;20024;-85
2023/12/09 09:14:56;;;;;;;7.17;1.80;;;;;;;;;;4916271;29;20031;-84
2023/12/09 09:17:21;;;;;;;5.00;1.63;;;;;;;;;;4915530;29;20314;-84
2023/12/09 09:19:46;;;;;;;3.43;1.60;;;;;;;;;;4916881;29;20032;-84
2023/12/09 09:22:12;;;;;;;8.70;1.73;;;;;;;;;;4916536;29;20329;-84
2023/12/09 09:24:37;;;;;;;5.53;1.77;;;;;;;;;;4916793;29;20035;-84
2023/12/09 09:27:02;;;;;;;3.87;1.90;;;;;;;;;;4915210;29;20259;-84
2023/12/09 09:29:27;;;;;;;4.88;2.40;;;;;;;;;;4916216;29;20265;-84
2023/12/09 09:31:53;;;;;;;15.43;2.80;;;;;;;;;;4916705;29;20032;-86
2023/12/09 09:34:18;;;;;;;6.53;2.45;;;;;;;;;;4915411;29;20373;-85
2023/12/09 09:36:45;;;;;;;10.50;2.43;;;;;;;;;;4916643;29;20017;-85
2023/12/09 09:39:12;;;;;;;9.32;1.77;;;;;;;;;;4916590;29;20720;-85
2023/12/09 09:41:43;;;;;;;4.97;1.85;;;;;;;;;;4915405;29;20025;-85
2023/12/09 09:44:11;;;;;;;8.70;2.13;;;;;;;;;;4916095;29;20485;-86
2023/12/09 09:46:37;;;;;;;8.38;1.83;;;;;;;;;;4902919;29;20031;-85
2023/12/09 09:49:06;;;;;;;6.80;1.85;;;;;;;;;;4897603;29;20071;-85
2023/12/09 09:51:31;;;;;;;7.43;1.70;;;;;;;;;;4897708;29;20017;-84
2023/12/09 09:54:05;;;;;;;6.90;1.70;;;;;;;;;;4912136;29;20029;-85
2023/12/09 09:56:31;;;;;;;4.93;1.55;;;;;;;;;;4897749;29;20063;-85
2023/12/09 09:58:56;;;;;;;2.63;1.30;;;;;;;;;;4911656;29;20047;-85
2023/12/09 10:01:23;;;;;;;7.15;1.60;;;;;;;;;;4896453;29;20025;-86
2023/12/09 10:03:48;;;;;;;4.03;1.38;;;;;;;;;;4897606;29;20023;-86
2023/12/09 10:06:14;;;;;;;4.43;1.80;;;;;;;;;;4911974;29;20024;-86
2023/12/09 10:08:39;;;;;;;4.28;1.20;;;;;;;;;;4897888;29;20389;-86
2023/12/09 10:11:05;;;;;;;5.38;1.40;;;;;;;;;;4897486;29;20025;-86
2023/12/09 10:13:30;;;;;;;1.88;0.82;;;;;;;;;;4911578;29;20397;-85
2023/12/09 10:15:55;;;;;;;4.60;1.50;;;;;;;;;;4919821;29;20388;-86
2023/12/09 10:18:21;;;;;;;7.60;2.13;;;;;;;;;;4918521;29;20754;-86
2023/12/09 10:20:46;;;;;;;8.10;1.50;;;;;;;;;;4918672;29;20274;-86
2023/12/09 10:23:12;;;;;;;4.10;1.25;;;;;;;;;;4918442;29;20112;-86
2023/12/09 10:25:39;;;;;;;4.35;1.50;;;;;;;;;;4902951;29;20437;-86
2023/12/09 10:28:06;;;;;;;5.85;1.65;;;;;;;;;;4918189;29;20103;-87
2023/12/09 10:30:31;;;;;;;5.20;1.42;;;;;;;;;;4917946;29;20024;-86
2023/12/09 10:32:58;;;;;;;6.57;1.97;;;;;;;;;;4918337;29;20039;-86
2023/12/09 10:35:24;;;;;;;9.80;1.70;;;;;;;;;;4919656;29;20293;-86
2023/12/09 10:37:52;;;;;;;5.90;1.70;;;;;;;;;;4918365;29;20024;-84
2023/12/09 10:40:19;;;;;;;8.75;2.00;;;;;;;;;;4919477;29;20072;-86
2023/12/09 10:42:44;;;;;;;7.40;1.35;;;;;;;;;;4919486;29;20012;-85
2023/12/09 10:45:11;;;;;;;3.78;1.65;;;;;;;;;;4916361;29;20187;-86
2023/12/09 10:47:36;;;;;;;6.28;1.48;;;;;;;;;;4915010;29;20039;-86
2023/12/09 10:50:03;;;;;;;4.68;1.73;;;;;;;;;;4914839;29;20029;-87
2023/12/09 10:52:29;;;;;;;6.30;1.52;;;;;;;;;;4915014;29;20101;-86
2023/12/09 10:54:54;;;;;;;8.07;1.90;;;;;;;;;;4900344;29;20081;-86
2023/12/09 10:57:19;;;;;;;9.48;1.65;;;;;;;;;;4900354;29;20532;-86
2023/12/09 10:59:45;;;;;;;8.18;1.70;;;;;;;;;;4914330;29;20025;-86
2023/12/09 11:02:11;;;;;;;5.83;2.00;;;;;;;;;;4914658;29;20481;-86
2023/12/09 11:04:36;;;;;;;4.80;1.85;;;;;;;;;;4914728;29;20383;-86
2023/12/09 11:07:05;;;;;;;3.92;1.35;;;;;;;;;;4914537;29;20115;-86
2023/12/09 11:09:31;;;;;;;5.60;1.67;;;;;;;;;;4900142;29;20394;-86
2023/12/09 11:11:58;;;;;;;8.55;2.00;;;;;;;;;;4914535;29;20032;-85
2023/12/09 11:14:26;;;;;;;8.70;1.73;;;;;;;;;;4913957;29;20020;-86
2023/12/09 11:16:53;;;;;;;5.97;2.05;;;;;;;;;;4930133;29;20099;-85
2023/12/09 11:19:19;;;;;;;8.32;2.35;;;;;;;;;;4918844;29;20031;-86
2023/12/09 11:21:45;;;;;;;6.68;2.17;;;;;;;;;;4917457;29;20366;-86
2023/12/09 11:24:11;;;;;;;8.75;2.30;;;;;;;;;;4917378;29;20016;-86
2023/12/09 11:26:39;;;;;;;5.07;2.67;;;;;;;;;;4917505;29;20050;-86
2023/12/09 11:29:05;;;;;;;8.13;2.13;;;;;;;;;;4916110;29;20544;-86
2023/12/09 11:31:31;;;;;;;10.50;2.70;;;;;;;;;;4918559;29;20055;-85
2023/12/09 11:33:56;;;;;;;9.00;2.28;;;;;;;;;;4919000;29;20041;-85
2023/12/09 11:36:23;;;;;;;4.03;2.05;;;;;;;;;;4918623;29;20581;-84
2023/12/09 11:38:48;;;;;;;6.55;2.38;;;;;;;;;;4917340;29;20123;-85
2023/12/09 11:41:14;;;;;;;6.60;2.35;;;;;;;;;;4917124;29;20119;-85
2023/12/09 11:43:40;;;;;;;8.20;2.60;;;;;;;;;;4916550;29;20476;-85
2023/12/09 11:46:06;;;;;;;5.85;2.03;;;;;;;;;;4908498;29;20076;-85
2023/12/09 11:48:31;;;;;;;5.72;2.25;;;;;;;;;;4913884;29;20037;-86
2023/12/09 11:50:56;;;;;;;4.97;2.17;;;;;;;;;;4913843;29;20031;-85
2023/12/09 11:53:21;;;;;;;3.70;2.10;;;;;;;;;;4913850;29;20029;-85
2023/12/09 11:55:47;;;;;;;7.57;2.57;;;;;;;;;;4899476;29;20283;-85
2023/12/09 11:58:12;;;;;;;7.78;2.67;;;;;;;;;;4898658;29;20306;-85
2023/12/09 12:00:37;;;;;;;7.73;2.53;;;;;;;;;;4913730;29;20442;-85
2023/12/09 12:03:03;;;;;;;6.40;2.30;;;;;;;;;;4913888;29;20323;-85
2023/12/09 12:05:28;;;;;;;5.18;2.42;;;;;;;;;;4913627;29;20263;-85
2023/12/09 12:07:54;;;;;;;8.47;2.83;;;;;;;;;;4913553;29;20028;-85
2023/12/09 12:10:19;;;;;;;7.97;3.25;;;;;;;;;;4913504;29;20498;-85
2023/12/09 12:12:44;;;;;;;13.15;3.72;;;;;;;;;;4913007;29;20056;-85
2023/12/09 12:15:10;;;;;;;6.80;2.95;;;;;;;;;;4915446;29;20072;-85
2023/12/09 12:17:39;;;;;;;7.75;3.20;;;;;;;;;;4917747;29;20429;-85
2023/12/09 12:20:06;;;;;;;6.22;3.05;;;;;;;;;;4916311;29;20028;-86
2023/12/09 12:22:31;;;;;;;8.45;2.88;;;;;;;;;;4916420;29;20051;-85
2023/12/09 12:24:56;;;;;;;6.70;3.33;;;;;;;;;;4916334;29;20020;-85
2023/12/09 12:27:21;;;;;;;12.90;4.18;;;;;;;;;;4915977;29;20397;-86
2023/12/09 12:29:47;;;;;;;6.85;3.63;;;;;;;;;;4932147;29;20036;-86
2023/12/09 12:32:14;;;;;;;5.68;2.95;;;;;;;;;;4916105;29;20016;-85
2023/12/09 12:34:43;;;;;;;6.15;2.78;;;;;;;;;;4916102;29;20106;-85
2023/12/09 12:37:08;;;;;;;8.00;2.90;;;;;;;;;;4917332;29;20066;-85
2023/12/09 12:39:33;;;;;;;7.85;3.53;;;;;;;;;;4917424;29;20028;-85
2023/12/09 12:41:59;;;;;;;7.07;3.08;;;;;;;;;;4916142;29;20025;-85
2023/12/09 12:44:24;;;;;;;6.80;3.40;;;;;;;;;;4915919;29;20572;-85
2023/12/09 12:46:49;;;;;;;8.65;3.60;;;;;;;;;;4901829;29;20035;-85
2023/12/09 12:49:15;;;;;;;9.48;3.95;;;;;;;;;;4912735;29;20020;-86
2023/12/09 12:51:40;;;;;;;9.75;3.92;;;;;;;;;;4912872;29;20020;-86
2023/12/09 12:54:05;;;;;;;10.98;3.75;;;;;;;;;;4912674;29;20027;-86
2023/12/09 12:56:30;;;;;;;8.63;4.30;;;;;;;;;;4898174;29;20024;-86
2023/12/09 12:58:56;;;;;;;6.75;3.78;;;;;;;;;;4897666;29;20095;-86
2023/12/09 13:01:21;;;;;;;10.75;3.30;;;;;;;;;;4912641;29;20044;-84
2023/12/09 13:03:48;;;;;;;8.40;3.60;;;;;;;;;;4912736;29;20035;-86
2023/12/09 13:06:13;;;;;;;8.05;3.60;;;;;;;;;;4897989;29;20260;-84
2023/12/09 13:08:39;;;;;;;8.88;4.15;;;;;;;;;;4912561;29;20099;-85
2023/12/09 13:11:04;;;;;;;6.50;4.22;;;;;;;;;;4897939;29;20025;-85
2023/12/09 13:13:29;;;;;;;8.05;4.57;;;;;;;;;;4897548;29;20028;-85
2023/12/09 13:15:54;;;;;;;9.27;4.60;;;;;;;;;;4920463;29;20413;-85
2023/12/09 13:18:21;;;;;;;11.40;5.57;;;;;;;;;;4916811;29;20720;-84
2023/12/09 13:20:49;;;;;;;9.25;4.85;;;;;;;;;;4916830;29;20024;-84
2023/12/09 13:23:14;;;;;;;10.43;5.15;;;;;;;;;;4915409;29;20111;-84
2023/12/09 13:25:40;;;;;;;13.07;6.43;;;;;;;;;;4915522;29;20115;-84
2023/12/09 13:28:05;;;;;;;9.02;5.25;;;;;;;;;;4916012;29;20062;-84
2023/12/09 13:30:31;;;;;;;13.40;6.53;;;;;;;;;;4916701;29;20028;-84
2023/12/09 13:33:01;;;;;;;8.57;5.68;;;;;;;;;;4916746;29;20254;-84
2023/12/09 13:35:27;;;;;;;12.07;5.70;;;;;;;;;;4916678;29;20028;-84
2023/12/09 13:37:52;;;;;;;10.73;5.68;;;;;;;;;;4916989;29;20043;-85
2023/12/09 13:40:17;;;;;;;14.38;5.97;;;;;;;;;;4916512;29;20025;-84
2023/12/09 13:42:42;;;;;;;12.27;5.93;;;;;;;;;;4916095;29;20457;-84
2023/12/09 13:45:08;;;;;;;10.88;5.53;;;;;;;;;;4915064;29;20035;-84
2023/12/09 13:47:33;;;;;;;9.93;5.90;;;;;;;;;;4916614;29;20020;-84
2023/12/09 13:49:58;;;;;;;9.32;5.22;;;;;;;;;;4916517;29;20082;-90
2023/12/09 13:52:28;;;;;;;9.00;5.88;;;;;;;;;;4932346;29;20062;-85
2023/12/09 13:54:53;;;;;;;14.52;5.30;;;;;;;;;;4935233;29;20064;-86
2023/12/09 13:57:18;;;;;;;9.95;4.57;;;;;;;;;;4919865;29;20058;-88
2023/12/09 13:59:43;;;;;;;7.60;4.77;;;;;;;;;;4934986;29;20469;-84
2023/12/09 14:02:09;;;;;;;9.88;4.55;;;;;;;;;;4934793;29;20603;-85
2023/12/09 14:04:35;;;;;;;10.98;4.60;;;;;;;;;;4934789;29;20031;-84
2023/12/09 14:07:00;;;;;;;8.30;4.72;;;;;;;;;;4920113;29;20433;-84
2023/12/09 14:09:27;;;;;;;8.25;5.03;;;;;;;;;;4934866;29;20024;-84
2023/12/09 14:11:52;;;;;;;9.25;5.35;;;;;;;;;;4918339;29;20013;-86
2023/12/09 14:14:17;;;;;;;7.07;4.40;;;;;;;;;;4920083;29;20071;-83
2023/12/09 14:16:42;;;;;;;8.03;5.13;;;;;;;;;;4919849;29;20088;-84
2023/12/09 14:19:10;;;;;;;5.65;4.15;;;;;;;;;;4919890;29;20306;-85
2023/12/09 14:21:35;;;;;;;6.25;4.35;;;;;;;;;;4919846;29;20024;-83
2023/12/09 14:24:00;;;;;;;8.13;4.45;;;;;;;;;;4919425;29;20066;-84
2023/12/09 14:26:28;;;;;;;8.10;4.63;;;;;;;;;;4918775;29;20028;-83
2023/12/09 14:28:54;;;;;;;7.70;4.38;;;;;;;;;;4906439;29;20358;-84